Time;durP1;ratioP1;P1;durP2;ratioP2;P2;SDS_P1;SDS_P2;PMS_P1;PMS_P2;Temp;Humidity;BMP_temperature;BMP_pressure;BME280_temperature;BME280_humidity;BME280_pressure;Samples;Min_cycle;Max_cycle;Signal;HPM_P1;HPM_P2
2023/10/13 00:01:42;;;;;;;7.65;2.22;;;;;;;;;;5005992;28;20116;-80
2023/10/13 00:04:08;;;;;;;5.00;2.20;;;;;;;;;;5006118;28;20037;-80
2023/10/13 00:06:33;;;;;;;8.52;2.10;;;;;;;;;;5012684;28;20038;-80
2023/10/13 00:08:59;;;;;;;5.55;1.90;;;;;;;;;;5009182;28;20537;-79
2023/10/13 00:11:26;;;;;;;4.75;2.03;;;;;;;;;;5006334;28;20374;-79
2023/10/13 00:13:53;;;;;;;6.55;2.15;;;;;;;;;;4994602;28;20090;-80
2023/10/13 00:16:21;;;;;;;5.05;2.13;;;;;;;;;;5005237;28;20034;-79
2023/10/13 00:18:48;;;;;;;4.90;2.25;;;;;;;;;;5009034;28;20034;-78
2023/10/13 00:21:15;;;;;;;8.13;2.38;;;;;;;;;;5005925;28;20415;-79
2023/10/13 00:23:55;;;;;;;6.45;2.88;;;;;;;;;;4998743;28;20026;-79
2023/10/13 00:26:27;;;;;;;5.38;2.08;;;;;;;;;;5001711;28;20034;-78
2023/10/13 00:31:36;;;;;;;7.13;2.17;;;;;;;;;;5005556;28;20088;-78
2023/10/13 00:34:45;;;;;;;7.43;3.00;;;;;;;;;;5006111;28;20030;-79
2023/10/13 00:39:44;;;;;;;6.38;2.30;;;;;;;;;;4996614;28;20034;-78
2023/10/13 00:42:17;;;;;;;3.92;1.95;;;;;;;;;;5002782;28;20442;-78
2023/10/13 00:44:49;;;;;;;7.88;2.20;;;;;;;;;;5002684;28;20022;-78
2023/10/13 00:50:04;;;;;;;6.60;2.00;;;;;;;;;;5000287;28;20510;-78
2023/10/13 00:52:30;;;;;;;6.32;2.40;;;;;;;;;;5003226;28;20477;-79
2023/10/13 00:54:59;;;;;;;5.43;2.08;;;;;;;;;;5001022;28;20049;-79
2023/10/13 00:57:29;;;;;;;7.45;2.40;;;;;;;;;;5000299;28;20038;-79
2023/10/13 00:59:56;;;;;;;7.95;2.22;;;;;;;;;;5005134;28;20025;-78
2023/10/13 01:02:39;;;;;;;5.30;2.20;;;;;;;;;;5001986;28;20117;-79
2023/10/13 01:05:09;;;;;;;6.03;2.23;;;;;;;;;;5003252;28;20097;-79
2023/10/13 01:07:38;;;;;;;5.47;2.55;;;;;;;;;;5003148;28;20522;-79
2023/10/13 01:10:04;;;;;;;8.07;2.15;;;;;;;;;;5002856;28;20615;-78
2023/10/13 01:12:30;;;;;;;3.25;1.83;;;;;;;;;;5007635;28;20038;-79
2023/10/13 01:14:57;;;;;;;6.53;2.30;;;;;;;;;;4996139;28;20030;-77
2023/10/13 01:17:23;;;;;;;10.27;2.60;;;;;;;;;;5001910;28;20057;-78
2023/10/13 01:19:49;;;;;;;6.32;1.88;;;;;;;;;;5003345;28;20038;-80
2023/10/13 01:22:14;;;;;;;4.78;1.60;;;;;;;;;;5000167;28;20117;-80
2023/10/13 01:24:39;;;;;;;6.85;1.98;;;;;;;;;;5008553;28;20060;-77
2023/10/13 01:27:20;;;;;;;5.07;2.08;;;;;;;;;;5007107;28;20541;-78
2023/10/13 01:29:51;;;;;;;4.20;2.08;;;;;;;;;;5000549;28;20026;-80
2023/10/13 01:32:18;;;;;;;4.72;2.10;;;;;;;;;;5005063;28;20034;-80
2023/10/13 01:34:48;;;;;;;4.50;1.98;;;;;;;;;;5005769;28;20034;-78
2023/10/13 01:37:15;;;;;;;4.00;1.70;;;;;;;;;;5001339;28;20125;-77
2023/10/13 01:39:41;;;;;;;4.68;2.55;;;;;;;;;;5011213;28;20057;-80
2023/10/13 01:42:06;;;;;;;5.57;2.10;;;;;;;;;;5001089;28;20065;-78
2023/10/13 01:44:32;;;;;;;6.07;2.63;;;;;;;;;;5005207;28;20702;-79
2023/10/13 01:47:07;;;;;;;6.03;2.53;;;;;;;;;;5005112;28;20034;-78
2023/10/13 01:49:42;;;;;;;5.97;1.80;;;;;;;;;;5006275;28;20060;-79
2023/10/13 01:52:16;;;;;;;5.85;2.38;;;;;;;;;;5002880;28;20513;-79
2023/10/13 01:54:48;;;;;;;4.88;2.20;;;;;;;;;;5000015;28;20576;-79
2023/10/13 01:57:17;;;;;;;9.10;2.38;;;;;;;;;;5010561;28;20041;-78
2023/10/13 01:59:43;;;;;;;7.22;1.92;;;;;;;;;;5007614;28;20102;-78
2023/10/13 02:02:12;;;;;;;6.18;1.83;;;;;;;;;;5002083;28;20133;-79
2023/10/13 02:04:42;;;;;;;6.35;2.25;;;;;;;;;;5005540;28;20042;-78
2023/10/13 02:07:08;;;;;;;8.20;2.03;;;;;;;;;;5003605;28;20030;-79
2023/10/13 02:09:36;;;;;;;13.88;3.25;;;;;;;;;;5002741;28;20035;-78
2023/10/13 02:12:02;;;;;;;7.07;2.50;;;;;;;;;;5004219;28;20403;-78
2023/10/13 02:14:27;;;;;;;4.50;2.30;;;;;;;;;;5003156;28;20043;-78
2023/10/13 02:17:11;;;;;;;5.38;2.70;;;;;;;;;;5005443;28;20128;-78
2023/10/13 02:19:39;;;;;;;6.25;3.50;;;;;;;;;;5007787;28;20117;-77
2023/10/13 02:22:08;;;;;;;5.75;2.38;;;;;;;;;;5008745;28;20041;-78
2023/10/13 02:24:34;;;;;;;9.10;2.38;;;;;;;;;;5005402;28;20053;-79
2023/10/13 02:27:10;;;;;;;9.55;2.20;;;;;;;;;;5002320;28;20022;-78
2023/10/13 02:29:39;;;;;;;8.95;2.28;;;;;;;;;;5004388;28;20184;-78
2023/10/13 02:32:12;;;;;;;9.82;2.03;;;;;;;;;;5000456;28;20061;-78
2023/10/13 02:34:43;;;;;;;6.00;1.85;;;;;;;;;;5003476;28;20054;-78
2023/10/13 02:37:09;;;;;;;13.82;2.78;;;;;;;;;;5008665;28;20049;-80
2023/10/13 02:39:36;;;;;;;4.20;1.95;;;;;;;;;;5002409;28;20030;-79
2023/10/13 02:42:01;;;;;;;7.72;2.45;;;;;;;;;;5004250;28;20022;-79
2023/10/13 02:44:27;;;;;;;7.22;2.15;;;;;;;;;;5008809;28;20121;-78
2023/10/13 02:46:55;;;;;;;11.60;2.30;;;;;;;;;;5004419;28;20038;-78
2023/10/13 02:49:26;;;;;;;8.07;2.70;;;;;;;;;;5007377;28;20040;-78
2023/10/13 02:51:52;;;;;;;9.05;2.67;;;;;;;;;;5002481;28;20042;-78
2023/10/13 02:54:18;;;;;;;12.77;2.53;;;;;;;;;;5005499;28;20026;-79
2023/10/13 02:56:57;;;;;;;7.32;2.50;;;;;;;;;;5009792;28;20026;-80
2023/10/13 02:59:34;;;;;;;6.57;2.00;;;;;;;;;;5000299;28;20508;-79
2023/10/13 03:02:06;;;;;;;4.43;2.15;;;;;;;;;;5002964;28;20149;-78
2023/10/13 03:04:32;;;;;;;6.32;2.92;;;;;;;;;;5007904;28;20037;-79
2023/10/13 03:06:59;;;;;;;7.68;2.10;;;;;;;;;;5007009;28;20042;-79
2023/10/13 03:09:24;;;;;;;7.90;2.63;;;;;;;;;;5005141;28;20096;-79
2023/10/13 03:11:50;;;;;;;6.10;2.15;;;;;;;;;;5004904;28;20033;-79
2023/10/13 03:14:39;;;;;;;8.13;2.15;;;;;;;;;;5005958;28;20041;-78
2023/10/13 03:17:14;;;;;;;8.48;2.42;;;;;;;;;;5001025;28;20445;-79
2023/10/13 03:19:55;;;;;;;5.55;2.03;;;;;;;;;;4999799;28;20502;-78
2023/10/13 03:22:30;;;;;;;15.60;2.60;;;;;;;;;;5033252;22;20030;-81
2023/10/13 03:24:59;;;;;;;5.88;2.00;;;;;;;;;;5001778;28;20049;-82
2023/10/13 03:27:39;;;;;;;9.65;2.25;;;;;;;;;;4999100;28;20034;-83
2023/10/13 03:30:13;;;;;;;4.43;2.50;;;;;;;;;;5004078;28;20054;-83
2023/10/13 03:32:43;;;;;;;3.97;1.90;;;;;;;;;;4998176;28;20023;-82
2023/10/13 03:35:24;;;;;;;6.13;2.20;;;;;;;;;;4993139;28;20080;-83
2023/10/13 03:37:52;;;;;;;9.23;2.50;;;;;;;;;;4998975;28;20053;-82
2023/10/13 03:43:04;;;;;;;5.38;2.00;;;;;;;;;;4996956;28;20435;-78
2023/10/13 03:45:36;;;;;;;10.40;2.87;;;;;;;;;;4977422;28;20042;-79
2023/10/13 03:48:08;;;;;;;6.95;2.25;;;;;;;;;;4977233;28;20345;-78
2023/10/13 03:50:35;;;;;;;6.72;2.15;;;;;;;;;;4989311;28;20426;-81
2023/10/13 03:53:01;;;;;;;8.73;2.20;;;;;;;;;;4987946;28;20118;-82
2023/10/13 03:55:28;;;;;;;8.82;2.17;;;;;;;;;;4989703;28;20101;-81
2023/10/13 03:57:54;;;;;;;7.45;3.17;;;;;;;;;;4993894;28;20031;-80
2023/10/13 04:00:24;;;;;;;8.48;2.30;;;;;;;;;;4992857;28;20048;-81
2023/10/13 04:03:05;;;;;;;5.10;2.20;;;;;;;;;;4994294;28;20022;-81
2023/10/13 04:06:00;;;;;;;8.55;2.80;;;;;;;;;;4987462;28;20073;-81
2023/10/13 04:19:03;;;;;;;7.97;2.60;;;;;;;;;;4988510;28;20409;-82
2023/10/13 04:29:48;;;;;;;10.07;2.63;;;;;;;;;;4988776;28;20049;-80
2023/10/13 04:32:15;;;;;;;6.63;2.33;;;;;;;;;;4986738;28;20027;-80
2023/10/13 04:34:45;;;;;;;8.65;2.30;;;;;;;;;;4983702;28;20050;-79
2023/10/13 04:38:01;;;;;;;9.77;2.45;;;;;;;;;;4986350;28;20057;-83
2023/10/13 04:40:08;;;;;;;8.77;2.05;;;;;;;;;;4972269;28;20038;-82
2023/10/13 04:42:49;;;;;;;5.22;2.20;;;;;;;;;;4985348;28;20054;-80
2023/10/13 04:48:13;;;;;;;6.47;2.33;;;;;;;;;;4991107;28;20033;-81
2023/10/13 04:50:45;;;;;;;11.82;2.67;;;;;;;;;;4991233;28;20034;-81
2023/10/13 04:53:27;;;;;;;27.40;2.42;;;;;;;;;;4982338;28;20088;-82
2023/10/13 05:44:56;;;;;;;8.10;2.27;;;;;;;;;;4989931;28;20065;-82
2023/10/13 05:47:46;;;;;;;10.68;2.72;;;;;;;;;;4977820;28;20671;-81
2023/10/13 06:31:05;;;;;;;5.13;2.57;;;;;;;;;;4974682;28;20073;-79
2023/10/13 06:33:34;;;;;;;3.70;2.50;;;;;;;;;;4980455;28;20474;-80
2023/10/13 06:36:08;;;;;;;12.32;2.83;;;;;;;;;;4994515;28;20041;-80
2023/10/13 06:38:36;;;;;;;;;;;;;;;;;;4982195;28;20042;-80
2023/10/13 06:41:05;;;;;;;5.25;2.00;;;;;;;;;;4983573;28;20289;-80
2023/10/13 06:43:43;;;;;;;10.75;2.67;;;;;;;;;;4981468;28;20147;-80
2023/10/13 06:46:14;;;;;;;8.50;2.83;;;;;;;;;;4979600;28;20073;-79
2023/10/13 06:48:41;;;;;;;9.15;2.47;;;;;;;;;;4980738;28;20058;-80
2023/10/13 06:51:17;;;;;;;7.60;2.00;;;;;;;;;;4975047;28;20487;-81
2023/10/13 06:53:47;;;;;;;7.28;2.05;;;;;;;;;;4972202;28;20019;-79
2023/10/13 06:56:16;;;;;;;13.05;2.20;;;;;;;;;;4978013;28;20157;-80
2023/10/13 06:58:44;;;;;;;6.53;2.33;;;;;;;;;;4979180;28;20050;-79
2023/10/13 07:01:14;;;;;;;9.40;2.30;;;;;;;;;;4977988;28;20038;-79
2023/10/13 07:03:41;;;;;;;7.95;2.30;;;;;;;;;;4985043;28;20469;-80
2023/10/13 07:06:11;;;;;;;9.88;3.00;;;;;;;;;;4977724;28;20033;-81
2023/10/13 07:08:37;;;;;;;6.32;2.17;;;;;;;;;;4981449;28;20037;-81
2023/10/13 07:11:08;;;;;;;8.73;2.40;;;;;;;;;;4983630;28;20039;-80
2023/10/13 07:13:39;;;;;;;13.77;2.08;;;;;;;;;;4982729;28;20049;-81
2023/10/13 07:16:13;;;;;;;7.65;2.65;;;;;;;;;;4982267;28;20074;-80
2023/10/13 07:19:04;;;;;;;8.13;2.42;;;;;;;;;;4987581;28;20039;-80
2023/10/13 07:21:31;;;;;;;12.25;2.05;;;;;;;;;;4985799;28;20062;-80
2023/10/13 07:24:08;;;;;;;17.38;2.38;;;;;;;;;;4985014;28;20038;-81
2023/10/13 07:26:35;;;;;;;10.77;2.35;;;;;;;;;;4985001;28;20533;-81
2023/10/13 07:29:00;;;;;;;6.88;1.98;;;;;;;;;;4983444;28;20030;-82
2023/10/13 07:31:27;;;;;;;7.05;2.40;;;;;;;;;;4985354;28;20038;-81
2023/10/13 07:34:04;;;;;;;10.35;2.88;;;;;;;;;;4985949;28;20109;-81
2023/10/13 07:36:33;;;;;;;7.85;2.30;;;;;;;;;;4985148;28;20039;-82
2023/10/13 07:41:42;;;;;;;12.68;2.45;;;;;;;;;;4986758;28;20509;-80
2023/10/13 07:44:07;;;;;;;11.70;2.33;;;;;;;;;;4984284;28;20047;-80
2023/10/13 07:46:33;;;;;;;5.90;2.30;;;;;;;;;;4984584;28;20043;-80
2023/10/13 07:49:08;;;;;;;7.97;2.63;;;;;;;;;;4983800;28;20038;-79
2023/10/13 07:51:40;;;;;;;6.55;2.22;;;;;;;;;;4987425;28;20045;-80
2023/10/13 07:54:11;;;;;;;6.95;2.85;;;;;;;;;;4986731;28;20061;-80
2023/10/13 07:56:39;;;;;;;7.03;2.63;;;;;;;;;;4985464;28;20590;-78
2023/10/13 07:59:06;;;;;;;9.02;1.90;;;;;;;;;;4983587;28;20103;-79
2023/10/13 08:01:32;;;;;;;13.65;2.40;;;;;;;;;;4985212;28;20041;-80
2023/10/13 08:04:14;;;;;;;14.25;2.85;;;;;;;;;;4984408;28;20038;-80
2023/10/13 08:06:43;;;;;;;6.63;2.30;;;;;;;;;;5000739;28;20035;-79
2023/10/13 08:09:09;;;;;;;5.40;2.25;;;;;;;;;;4998685;28;20038;-81
2023/10/13 08:11:37;;;;;;;10.20;1.90;;;;;;;;;;4985823;28;20018;-80
2023/10/13 08:14:22;;;;;;;16.15;2.45;;;;;;;;;;4988104;28;20055;-80
2023/10/13 08:17:00;;;;;;;10.75;2.33;;;;;;;;;;4984007;28;20046;-79
2023/10/13 08:19:27;;;;;;;5.97;2.10;;;;;;;;;;4985055;28;20089;-79
2023/10/13 08:42:55;;;;;;;3.20;2.10;;;;;;;;;;4976300;28;20784;-80
2023/10/13 08:48:14;;;;;;;6.90;2.28;;;;;;;;;;4977182;28;20031;-78
2023/10/13 09:01:34;;;;;;;11.88;3.08;;;;;;;;;;4987468;28;20045;-81
2023/10/13 09:04:20;;;;;;;14.13;2.50;;;;;;;;;;4984751;28;20098;-82
2023/10/13 09:09:35;;;;;;;9.10;2.63;;;;;;;;;;4980206;28;20042;-81
2023/10/13 09:12:20;;;;;;;7.28;1.88;;;;;;;;;;4980957;28;20049;-81
2023/10/13 09:15:05;;;;;;;6.35;2.20;;;;;;;;;;4989330;28;20026;-80
2023/10/13 09:25:33;;;;;;;6.43;1.98;;;;;;;;;;4987392;28;20041;-81
2023/10/13 09:28:00;;;;;;;5.05;2.08;;;;;;;;;;5001385;28;20042;-82
2023/10/13 09:30:28;;;;;;;10.30;2.58;;;;;;;;;;4986901;28;20045;-77
2023/10/13 09:33:01;;;;;;;11.35;3.10;;;;;;;;;;5004488;23;20108;-78
2023/10/13 09:35:27;;;;;;;4.70;1.83;;;;;;;;;;4993803;28;20042;-78
2023/10/13 09:37:56;;;;;;;7.10;1.90;;;;;;;;;;5019078;28;20082;-78
2023/10/13 09:40:25;;;;;;;7.25;2.10;;;;;;;;;;5001019;28;20498;-79
2023/10/13 09:42:52;;;;;;;10.35;2.50;;;;;;;;;;4996186;28;20093;-79
2023/10/13 09:45:17;;;;;;;6.72;2.15;;;;;;;;;;5003333;28;20026;-78
2023/10/13 09:47:47;;;;;;;8.07;2.13;;;;;;;;;;5005338;28;20033;-79
2023/10/13 09:50:23;;;;;;;4.72;1.98;;;;;;;;;;5008324;28;20040;-78
2023/10/13 09:52:52;;;;;;;6.13;1.70;;;;;;;;;;5006319;28;20034;-78
2023/10/13 09:55:18;;;;;;;10.85;2.28;;;;;;;;;;5002377;28;20563;-78
2023/10/13 09:57:48;;;;;;;8.10;1.98;;;;;;;;;;5008100;28;20472;-78
2023/10/13 10:03:39;;;;;;;9.43;2.75;;;;;;;;;;4981582;28;20409;-78
2023/10/13 10:06:14;;;;;;;2.58;1.50;;;;;;;;;;5005255;28;20022;-79
2023/10/13 10:08:48;;;;;;;6.35;2.25;;;;;;;;;;5004000;28;20056;-78
2023/10/13 10:11:39;;;;;;;7.22;2.72;;;;;;;;;;5007006;28;20069;-79
2023/10/13 10:14:09;;;;;;;9.10;1.83;;;;;;;;;;4998385;28;20038;-79
2023/10/13 10:16:46;;;;;;;8.93;1.80;;;;;;;;;;5000314;28;20095;-79
2023/10/13 10:19:12;;;;;;;5.93;2.10;;;;;;;;;;4999650;28;20070;-78
2023/10/13 10:21:37;;;;;;;6.60;2.38;;;;;;;;;;5001370;28;20026;-78
2023/10/13 10:24:24;;;;;;;5.40;1.95;;;;;;;;;;5005060;28;20543;-78
2023/10/13 10:26:56;;;;;;;8.93;2.13;;;;;;;;;;5017974;28;20080;-79
2023/10/13 10:29:22;;;;;;;5.88;2.50;;;;;;;;;;5002018;28;20393;-79
2023/10/13 10:31:48;;;;;;;6.55;1.85;;;;;;;;;;5006085;28;20026;-79
2023/10/13 10:34:18;;;;;;;3.97;1.85;;;;;;;;;;5000487;28;20038;-79
2023/10/13 10:36:46;;;;;;;10.25;2.75;;;;;;;;;;5005127;28;20053;-78
2023/10/13 10:39:12;;;;;;;6.78;2.00;;;;;;;;;;5005720;28;20034;-78
2023/10/13 10:47:01;;;;;;;6.47;1.77;;;;;;;;;;4992214;28;20052;-79
2023/10/13 10:49:29;;;;;;;8.00;2.10;;;;;;;;;;4991716;28;20518;-79
2023/10/13 10:52:14;;;;;;;11.40;2.63;;;;;;;;;;5001652;28;20038;-78
2023/10/13 10:54:43;;;;;;;11.63;2.72;;;;;;;;;;4997637;28;20145;-78
2023/10/13 10:57:17;;;;;;;5.65;2.00;;;;;;;;;;5003977;28;20502;-79
2023/10/13 10:59:42;;;;;;;7.87;2.13;;;;;;;;;;5008684;28;20026;-79
2023/10/13 11:02:08;;;;;;;9.00;1.63;;;;;;;;;;5006123;28;20718;-78
2023/10/13 11:04:40;;;;;;;8.23;1.95;;;;;;;;;;5003193;28;20045;-79
2023/10/13 11:07:06;;;;;;;7.95;2.00;;;;;;;;;;5007893;28;20128;-79
2023/10/13 11:12:14;;;;;;;9.43;2.10;;;;;;;;;;5003527;28;20062;-78
2023/10/13 11:14:39;;;;;;;7.75;1.67;;;;;;;;;;5005956;28;20132;-79
2023/10/13 11:17:13;;;;;;;3.35;1.63;;;;;;;;;;5005600;28;20046;-80
2023/10/13 11:19:40;;;;;;;8.93;2.20;;;;;;;;;;5004573;28;20517;-78
2023/10/13 11:22:29;;;;;;;10.25;2.10;;;;;;;;;;5004099;28;20537;-78
2023/10/13 11:25:10;;;;;;;6.97;2.00;;;;;;;;;;5016361;28;20438;-79
2023/10/13 11:30:19;;;;;;;6.13;1.67;;;;;;;;;;5005669;28;20034;-78
2023/10/13 11:32:45;;;;;;;;;;;;;;;;;;5001471;28;20125;-78
2023/10/13 11:35:20;;;;;;;10.30;1.95;;;;;;;;;;5000054;28;19960;-78
2023/10/13 11:37:55;;;;;;;10.13;2.33;;;;;;;;;;5003754;28;20041;-78
2023/10/13 11:40:43;;;;;;;12.88;1.73;;;;;;;;;;5002895;28;20116;-78
2023/10/13 11:43:07;;;;;;;4.45;1.88;;;;;;;;;;5003440;28;20513;-79
2023/10/13 11:45:32;;;;;;;5.70;1.98;;;;;;;;;;5003138;28;20494;-79
2023/10/13 11:48:00;;;;;;;9.82;2.17;;;;;;;;;;5004419;28;20026;-79
2023/10/13 11:50:33;;;;;;;12.30;2.15;;;;;;;;;;4998141;28;20433;-79
2023/10/13 11:53:00;;;;;;;8.52;2.47;;;;;;;;;;5003959;28;20060;-79
2023/10/13 11:55:26;;;;;;;7.03;1.80;;;;;;;;;;5005058;28;20046;-79
2023/10/13 11:57:51;;;;;;;8.35;1.60;;;;;;;;;;5004645;28;20038;-79
2023/10/13 12:00:44;;;;;;;11.85;2.40;;;;;;;;;;4998931;28;20344;-79
2023/10/13 12:05:59;;;;;;;7.10;1.67;;;;;;;;;;4998164;28;20680;-79
2023/10/13 12:08:32;;;;;;;10.25;2.30;;;;;;;;;;4994367;28;20043;-79
2023/10/13 12:11:30;;;;;;;11.45;2.28;;;;;;;;;;5000082;28;20034;-78
2023/10/13 12:13:46;;;;;;;7.50;2.13;;;;;;;;;;4991238;28;20038;-78
2023/10/13 12:16:12;;;;;;;6.75;2.00;;;;;;;;;;4991016;28;20046;-79
2023/10/13 12:18:38;;;;;;;9.82;2.33;;;;;;;;;;4990473;28;20510;-79
2023/10/13 12:21:09;;;;;;;9.85;2.20;;;;;;;;;;4990121;28;20034;-79
2023/10/13 12:23:36;;;;;;;11.15;2.80;;;;;;;;;;4992453;28;20037;-80
2023/10/13 12:26:06;;;;;;;4.80;2.10;;;;;;;;;;4990010;28;20030;-79
2023/10/13 12:28:37;;;;;;;8.35;2.10;;;;;;;;;;4991111;28;20092;-79
2023/10/13 12:31:07;;;;;;;7.47;1.92;;;;;;;;;;4996008;28;20038;-79
2023/10/13 12:33:42;;;;;;;13.45;2.50;;;;;;;;;;5003099;28;20069;-79
2023/10/13 12:52:02;;;;;;;7.93;2.15;;;;;;;;;;5005968;28;20056;-79
2023/10/13 12:54:35;;;;;;;9.70;2.33;;;;;;;;;;4999377;28;20045;-79
2023/10/13 12:57:00;;;;;;;6.55;2.25;;;;;;;;;;5001117;28;20069;-79
2023/10/13 12:59:26;;;;;;;6.63;2.20;;;;;;;;;;5005439;28;20061;-79
2023/10/13 13:01:52;;;;;;;14.27;2.50;;;;;;;;;;5000179;28;20033;-79
2023/10/13 13:04:21;;;;;;;11.57;2.20;;;;;;;;;;5000252;28;20037;-80
2023/10/13 13:06:47;;;;;;;8.20;2.35;;;;;;;;;;4998556;28;20030;-79
2023/10/13 13:09:12;;;;;;;8.73;2.13;;;;;;;;;;5005090;28;20382;-79
2023/10/13 13:11:39;;;;;;;5.80;2.17;;;;;;;;;;5006566;28;20026;-79
2023/10/13 13:14:07;;;;;;;11.45;2.90;;;;;;;;;;5006565;28;20065;-79
2023/10/13 13:16:33;;;;;;;9.88;2.40;;;;;;;;;;5005294;28;20037;-79
2023/10/13 13:18:58;;;;;;;5.18;1.98;;;;;;;;;;5009135;28;20030;-79
2023/10/13 13:21:24;;;;;;;10.38;1.90;;;;;;;;;;5011367;28;20033;-78
2023/10/13 13:23:50;;;;;;;12.45;5.25;;;;;;;;;;5005264;28;20125;-79
2023/10/13 13:26:17;;;;;;;15.32;9.65;;;;;;;;;;5005867;28;20513;-79
2023/10/13 13:28:50;;;;;;;10.18;2.92;;;;;;;;;;5009081;28;20572;-79
2023/10/13 13:31:15;;;;;;;6.63;1.98;;;;;;;;;;5006239;28;20034;-79
2023/10/13 13:33:43;;;;;;;13.27;2.20;;;;;;;;;;5009329;28;20046;-79
2023/10/13 13:36:15;;;;;;;11.52;2.60;;;;;;;;;;5013319;28;20022;-79
2023/10/13 13:38:45;;;;;;;5.05;2.15;;;;;;;;;;5012657;28;20034;-79
2023/10/13 13:41:16;;;;;;;7.07;2.50;;;;;;;;;;5008490;28;20037;-80
2023/10/13 13:46:27;;;;;;;6.55;1.85;;;;;;;;;;5005939;28;20612;-79
2023/10/13 13:48:58;;;;;;;11.55;2.53;;;;;;;;;;5007232;28;20038;-79
2023/10/13 13:51:27;;;;;;;9.60;2.08;;;;;;;;;;5004786;28;20049;-80
2023/10/13 13:53:54;;;;;;;5.32;2.03;;;;;;;;;;5002720;28;20056;-79
2023/10/13 13:56:19;;;;;;;9.77;2.60;;;;;;;;;;4999603;28;20522;-79
2023/10/13 13:58:49;;;;;;;6.10;2.60;;;;;;;;;;5008803;28;20025;-79
2023/10/13 14:01:17;;;;;;;7.68;2.38;;;;;;;;;;4999570;28;20053;-78
2023/10/13 14:03:46;;;;;;;10.82;2.20;;;;;;;;;;4992282;28;20038;-77
2023/10/13 14:06:25;;;;;;;5.72;2.10;;;;;;;;;;4999163;28;20028;-80
2023/10/13 14:08:54;;;;;;;8.68;2.40;;;;;;;;;;5001989;28;20494;-80
2023/10/13 14:13:49;;;;;;;9.85;2.47;;;;;;;;;;4993496;28;20042;-78
2023/10/13 14:16:22;;;;;;;4.47;2.10;;;;;;;;;;4990792;28;20034;-80
2023/10/13 14:18:49;;;;;;;9.20;2.75;;;;;;;;;;4989806;28;20047;-78
2023/10/13 14:21:18;;;;;;;6.22;2.10;;;;;;;;;;4996952;28;20108;-80
2023/10/13 14:23:48;;;;;;;6.07;2.08;;;;;;;;;;5008419;28;20085;-80
2023/10/13 14:26:19;;;;;;;6.63;2.50;;;;;;;;;;4999633;28;20045;-78
2023/10/13 14:29:07;;;;;;;4.97;2.17;;;;;;;;;;5003830;28;20042;-81
2023/10/13 14:31:33;;;;;;;6.65;2.17;;;;;;;;;;5003400;28;20038;-78
2023/10/13 14:33:58;;;;;;;5.72;2.10;;;;;;;;;;5007266;28;20469;-78
2023/10/13 14:36:28;;;;;;;8.75;2.30;;;;;;;;;;5006004;28;20054;-78
2023/10/13 14:38:54;;;;;;;6.72;2.17;;;;;;;;;;5001874;28;20125;-78
2023/10/13 14:41:19;;;;;;;17.27;2.35;;;;;;;;;;5002276;28;20056;-78
2023/10/13 14:43:48;;;;;;;12.70;2.28;;;;;;;;;;5008798;28;20502;-78
2023/10/13 14:46:14;;;;;;;7.05;2.70;;;;;;;;;;5004680;28;20503;-78
2023/10/13 14:48:40;;;;;;;11.55;3.10;;;;;;;;;;5004967;28;20042;-78
2023/10/13 14:51:18;;;;;;;6.40;2.38;;;;;;;;;;5004264;28;20521;-79
2023/10/13 14:53:44;;;;;;;9.90;2.60;;;;;;;;;;5002727;28;20393;-78
2023/10/13 14:56:14;;;;;;;4.50;2.17;;;;;;;;;;5006109;28;20581;-79
2023/10/13 14:58:43;;;;;;;5.18;2.03;;;;;;;;;;4995153;28;20072;-79
2023/10/13 15:01:14;;;;;;;11.60;2.22;;;;;;;;;;5006254;28;20560;-79
2023/10/13 15:03:43;;;;;;;9.20;2.47;;;;;;;;;;5006136;28;20057;-79
2023/10/13 15:06:17;;;;;;;6.43;2.30;;;;;;;;;;5021539;28;20396;-79
2023/10/13 15:08:45;;;;;;;;;;;;;;;;;;5007868;28;20026;-80
2023/10/13 15:11:14;;;;;;;6.80;2.47;;;;;;;;;;4998423;28;19928;-79
2023/10/13 15:13:40;;;;;;;12.63;2.67;;;;;;;;;;4991720;28;20038;-79
2023/10/13 15:16:17;;;;;;;12.10;4.20;;;;;;;;;;4993833;28;20202;-79
2023/10/13 15:18:52;;;;;;;8.63;2.80;;;;;;;;;;4996596;28;20061;-79
2023/10/13 15:21:22;;;;;;;7.88;3.97;;;;;;;;;;4999540;28;20205;-79
2023/10/13 15:23:48;;;;;;;8.90;3.63;;;;;;;;;;5009202;28;20029;-79
2023/10/13 15:26:14;;;;;;;12.80;3.30;;;;;;;;;;5004272;28;20128;-79
2023/10/13 15:28:53;;;;;;;8.95;2.58;;;;;;;;;;5003729;28;20049;-79
2023/10/13 15:36:27;;;;;;;19.25;3.08;;;;;;;;;;5009068;28;20054;-79
2023/10/13 15:38:56;;;;;;;6.32;2.95;;;;;;;;;;5010932;28;20349;-76
2023/10/13 15:41:26;;;;;;;9.20;2.63;;;;;;;;;;5009445;28;20042;-76
2023/10/13 15:43:52;;;;;;;10.73;2.92;;;;;;;;;;5006869;28;20034;-78
2023/10/13 15:46:20;;;;;;;5.05;2.70;;;;;;;;;;5012145;28;20042;-79
2023/10/13 15:48:49;;;;;;;7.10;2.35;;;;;;;;;;5009629;28;20410;-80
2023/10/13 15:51:16;;;;;;;4.10;2.55;;;;;;;;;;5007905;28;20123;-80
2023/10/13 15:53:47;;;;;;;5.55;2.30;;;;;;;;;;5002803;28;20022;-79
2023/10/13 15:56:16;;;;;;;9.05;2.45;;;;;;;;;;5001859;28;20037;-80
2023/10/13 15:58:45;;;;;;;5.43;2.50;;;;;;;;;;4997947;28;20046;-80
2023/10/13 16:01:14;;;;;;;8.55;2.70;;;;;;;;;;4999421;28;20058;-79
2023/10/13 16:03:43;;;;;;;5.93;2.80;;;;;;;;;;5000416;28;20030;-79
2023/10/13 16:06:10;;;;;;;7.10;3.20;;;;;;;;;;4998219;28;20094;-79
2023/10/13 16:08:42;;;;;;;6.93;2.95;;;;;;;;;;5001780;28;20049;-79
2023/10/13 16:11:13;;;;;;;21.40;3.28;;;;;;;;;;5014322;28;20038;-79
2023/10/13 16:13:42;;;;;;;7.18;2.53;;;;;;;;;;5015044;28;20041;-78
2023/10/13 16:16:18;;;;;;;10.10;2.58;;;;;;;;;;5012901;28;20103;-79
2023/10/13 16:18:47;;;;;;;8.15;2.65;;;;;;;;;;5012235;28;20026;-79
2023/10/13 16:21:14;;;;;;;5.97;2.80;;;;;;;;;;5014647;28;20117;-81
2023/10/13 16:23:40;;;;;;;7.47;2.60;;;;;;;;;;5017849;28;20383;-81
2023/10/13 16:26:07;;;;;;;17.75;2.97;;;;;;;;;;5012296;28;20045;-79
2023/10/13 16:28:36;;;;;;;4.57;2.40;;;;;;;;;;5011221;28;20398;-79
2023/10/13 16:31:02;;;;;;;5.15;2.85;;;;;;;;;;5014460;28;20089;-80
2023/10/13 16:33:28;;;;;;;11.05;2.45;;;;;;;;;;5013897;28;20029;-78
2023/10/13 16:35:56;;;;;;;7.93;2.97;;;;;;;;;;5016499;28;20049;-79
2023/10/13 16:38:24;;;;;;;6.10;2.67;;;;;;;;;;5013321;28;20078;-79
2023/10/13 16:40:52;;;;;;;9.65;3.10;;;;;;;;;;5009883;28;20027;-81
2023/10/13 16:43:18;;;;;;;10.35;2.75;;;;;;;;;;5003064;28;20045;-79
2023/10/13 16:45:47;;;;;;;11.80;2.80;;;;;;;;;;4999662;28;20148;-79
2023/10/13 16:48:13;;;;;;;12.35;2.72;;;;;;;;;;4998383;28;20605;-77
2023/10/13 16:50:48;;;;;;;11.60;2.83;;;;;;;;;;5000251;28;20037;-78
2023/10/13 16:53:13;;;;;;;11.35;2.83;;;;;;;;;;5002090;28;20046;-80
2023/10/13 16:55:41;;;;;;;9.73;2.70;;;;;;;;;;5003886;28;20062;-80
2023/10/13 16:58:11;;;;;;;6.82;2.40;;;;;;;;;;5004537;28;20125;-79
2023/10/13 17:00:38;;;;;;;3.25;2.30;;;;;;;;;;5003978;28;20521;-82
2023/10/13 17:03:29;;;;;;;4.20;2.78;;;;;;;;;;5009066;28;20188;-81
2023/10/13 17:05:55;;;;;;;6.15;2.58;;;;;;;;;;5008683;28;20042;-81
2023/10/13 17:08:20;;;;;;;6.57;2.97;;;;;;;;;;5009538;28;20053;-81
2023/10/13 17:10:47;;;;;;;7.07;2.58;;;;;;;;;;5002497;28;20030;-82
2023/10/13 17:13:13;;;;;;;7.18;2.90;;;;;;;;;;5007026;28;20065;-82
2023/10/13 17:15:38;;;;;;;10.90;3.20;;;;;;;;;;5004178;28;20038;-81
2023/10/13 17:18:05;;;;;;;4.25;2.58;;;;;;;;;;5008213;28;20044;-82
2023/10/13 17:20:40;;;;;;;8.60;2.60;;;;;;;;;;5008609;28;20033;-83
2023/10/13 17:23:07;;;;;;;5.95;2.55;;;;;;;;;;5005068;28;20038;-82
2023/10/13 17:25:36;;;;;;;5.90;2.50;;;;;;;;;;5010488;28;20066;-82
2023/10/13 17:28:12;;;;;;;7.78;2.58;;;;;;;;;;5011040;28;20053;-81
2023/10/13 17:30:41;;;;;;;5.30;2.35;;;;;;;;;;5009075;28;20057;-81
2023/10/13 17:33:11;;;;;;;10.15;2.80;;;;;;;;;;5015715;28;20073;-82
2023/10/13 17:35:39;;;;;;;5.07;2.45;;;;;;;;;;5003916;28;20034;-81
2023/10/13 17:38:05;;;;;;;5.13;2.45;;;;;;;;;;5005937;28;20061;-82
2023/10/13 17:40:30;;;;;;;4.95;2.92;;;;;;;;;;5001188;28;20034;-82
2023/10/13 17:42:55;;;;;;;6.22;3.08;;;;;;;;;;5003718;28;20054;-80
2023/10/13 17:45:21;;;;;;;11.70;3.00;;;;;;;;;;5004876;28;20050;-83
2023/10/13 17:47:46;;;;;;;7.03;2.50;;;;;;;;;;5008931;28;20021;-83
2023/10/13 17:50:16;;;;;;;5.80;2.55;;;;;;;;;;5011083;28;20038;-81
2023/10/13 17:52:42;;;;;;;8.68;2.58;;;;;;;;;;5009606;28;20034;-82
2023/10/13 17:55:09;;;;;;;3.35;2.58;;;;;;;;;;5003042;28;20130;-83
2023/10/13 17:57:35;;;;;;;3.55;2.45;;;;;;;;;;5005800;28;20058;-80
2023/10/13 18:00:02;;;;;;;6.07;2.80;;;;;;;;;;5008926;28;20045;-82
2023/10/13 18:02:28;;;;;;;10.43;3.00;;;;;;;;;;4998861;28;20058;-83
2023/10/13 18:04:54;;;;;;;5.28;2.78;;;;;;;;;;4999297;28;20039;-82
2023/10/13 18:07:21;;;;;;;6.15;2.60;;;;;;;;;;4998006;28;20037;-84
2023/10/13 18:09:46;;;;;;;7.07;3.05;;;;;;;;;;4999784;28;20038;-82
2023/10/13 18:12:11;;;;;;;6.45;2.88;;;;;;;;;;5002882;28;20402;-82
2023/10/13 18:14:37;;;;;;;11.27;2.97;;;;;;;;;;5009895;28;20398;-82
2023/10/13 18:17:04;;;;;;;9.38;2.47;;;;;;;;;;5006141;28;20137;-81
2023/10/13 18:19:30;;;;;;;3.08;2.40;;;;;;;;;;5009612;28;20112;-82
2023/10/13 18:21:58;;;;;;;7.90;2.63;;;;;;;;;;5005286;28;20043;-82
2023/10/13 18:24:26;;;;;;;6.88;2.33;;;;;;;;;;5000709;28;20061;-83
2023/10/13 18:26:53;;;;;;;7.82;2.55;;;;;;;;;;5004279;28;20022;-81
2023/10/13 18:29:18;;;;;;;5.93;2.67;;;;;;;;;;5008057;28;20034;-81
2023/10/13 18:31:43;;;;;;;12.35;3.20;;;;;;;;;;5007868;28;20049;-83